createdAt,value
2022-11-02T00:00:41.590Z,8.64
2022-11-02T00:03:08.771Z,8.71
2022-11-02T00:05:35.675Z,8.73
2022-11-02T00:08:02.116Z,8.71
2022-11-02T00:10:29.971Z,8.71
2022-11-02T00:12:56.633Z,8.61
2022-11-02T00:15:26.594Z,8.56
2022-11-02T00:17:58.548Z,8.64
2022-11-02T00:20:26.369Z,8.55
2022-11-02T00:22:58.403Z,8.52
2022-11-02T00:25:27.179Z,8.56
2022-11-02T00:27:53.897Z,8.55
2022-11-02T00:30:20.697Z,8.57
2022-11-02T00:32:47.253Z,8.61
2022-11-02T00:35:13.707Z,8.61
2022-11-02T00:37:40.284Z,8.62
2022-11-02T00:40:06.981Z,8.53
2022-11-02T00:42:33.612Z,8.43
2022-11-02T00:45:00.163Z,8.43
2022-11-02T00:47:26.738Z,8.42
2022-11-02T00:49:53.603Z,8.34
2022-11-02T00:52:20.710Z,8.35
2022-11-02T00:54:50.444Z,8.21
2022-11-02T00:57:17.495Z,8.11
2022-11-02T00:59:44.196Z,8.07
2022-11-02T01:02:10.756Z,8.13
2022-11-02T01:04:37.445Z,8.05
2022-11-02T01:07:04.046Z,8.09
2022-11-02T01:09:30.646Z,7.77
2022-11-02T01:11:57.295Z,7.79
2022-11-02T01:14:23.846Z,7.67
2022-11-02T01:16:50.452Z,7.88
2022-11-02T01:19:18.327Z,7.92
2022-11-02T01:21:44.732Z,7.74
2022-11-02T01:24:11.312Z,7.88
2022-11-02T01:26:37.905Z,7.62
2022-11-02T01:29:04.330Z,7.73
2022-11-02T01:31:30.912Z,7.76
2022-11-02T01:33:57.442Z,7.68
2022-11-02T01:36:24.183Z,7.63
2022-11-02T01:38:51.534Z,7.68
2022-11-02T01:41:18.379Z,7.79
2022-11-02T01:43:46.812Z,7.80
2022-11-02T01:46:13.309Z,7.81
2022-11-02T01:48:50.941Z,7.66
2022-11-02T01:51:29.887Z,7.71
2022-11-02T01:54:00.573Z,7.69
2022-11-02T01:56:31.585Z,7.69
2022-11-02T01:59:01.754Z,7.57
2022-11-02T02:01:29.623Z,7.56
2022-11-02T02:03:57.561Z,7.44
2022-11-02T02:06:28.173Z,7.49
2022-11-02T02:08:58.959Z,7.38
2022-11-02T02:11:29.773Z,7.59
2022-11-02T02:14:17.213Z,7.39
2022-11-02T02:17:20.805Z,7.40
2022-11-02T02:20:00.703Z,7.37
2022-11-02T02:22:41.694Z,7.37
2022-11-02T02:25:33.210Z,7.35
2022-11-02T02:28:27.567Z,7.31
2022-11-02T02:31:16.301Z,7.22
2022-11-02T02:33:49.350Z,7.29
2022-11-02T02:36:24.817Z,7.34
2022-11-02T02:38:57.318Z,7.22
2022-11-02T02:41:40.421Z,7.03
2022-11-02T02:44:13.054Z,6.97
2022-11-02T02:46:56.399Z,6.79
2022-11-02T02:49:33.584Z,6.90
2022-11-02T02:52:02.220Z,6.80
2022-11-02T02:54:35.856Z,6.74
2022-11-02T02:57:08.760Z,6.83
2022-11-02T02:59:48.521Z,6.76
2022-11-02T03:02:32.133Z,6.85
2022-11-02T03:04:58.760Z,6.62
2022-11-02T03:07:33.733Z,6.52
2022-11-02T03:10:16.873Z,6.48
2022-11-02T03:13:04.002Z,6.47
2022-11-02T03:15:50.381Z,6.50
2022-11-02T03:18:32.817Z,6.44
2022-11-02T03:21:08.382Z,6.52
2022-11-02T03:23:39.518Z,6.52
2022-11-02T03:26:41.468Z,6.52
2022-11-02T03:29:13.404Z,6.69
2022-11-02T03:31:54.370Z,6.71
2022-11-02T03:34:26.815Z,6.68
2022-11-02T03:37:10.765Z,6.79
2022-11-02T03:39:42.204Z,6.72
2022-11-02T03:42:13.654Z,6.60
2022-11-02T03:44:41.633Z,6.72
2022-11-02T03:47:12.726Z,6.74
2022-11-02T03:49:42.831Z,6.68
2022-11-02T03:52:17.240Z,6.68
2022-11-02T03:54:54.023Z,6.69
2022-11-02T03:57:32.639Z,6.65
2022-11-02T04:00:11.651Z,6.58
2022-11-02T04:02:46.098Z,6.54
2022-11-02T04:05:13.824Z,6.26
2022-11-02T04:08:02.214Z,6.41
2022-11-02T04:10:29.130Z,6.54
2022-11-02T04:13:28.133Z,6.40
2022-11-02T04:15:54.737Z,6.34
2022-11-02T04:18:40.442Z,6.53
2022-11-02T04:21:07.151Z,6.59
2022-11-02T04:23:52.302Z,6.53
2022-11-02T04:26:19.065Z,6.63
2022-11-02T04:28:45.602Z,6.56
2022-11-02T04:31:13.083Z,6.63
2022-11-02T04:33:41.399Z,6.58
2022-11-02T04:36:10.652Z,6.48
2022-11-02T04:38:42.083Z,6.42
2022-11-02T04:41:40.246Z,6.48
2022-11-02T04:44:23.671Z,6.43
2022-11-02T04:47:15.543Z,6.53
2022-11-02T04:49:43.542Z,6.58
2022-11-02T04:52:14.622Z,6.59
2022-11-02T04:54:46.209Z,6.57
2022-11-02T04:57:13.242Z,6.57
2022-11-02T04:59:40.018Z,6.53
2022-11-02T05:02:07.762Z,6.54
2022-11-02T05:04:35.185Z,6.51
2022-11-02T05:07:06.312Z,6.46
2022-11-02T05:09:34.416Z,6.40
2022-11-02T05:12:01.892Z,6.47
2022-11-02T05:14:28.628Z,6.44
2022-11-02T05:16:56.213Z,6.34
2022-11-02T05:19:24.906Z,5.92
2022-11-02T05:21:52.174Z,5.93
2022-11-02T05:24:19.074Z,6.04
2022-11-02T05:26:51.293Z,5.85
2022-11-02T05:29:20.784Z,5.72
2022-11-02T05:31:47.876Z,5.77
2022-11-02T05:34:14.919Z,5.84
2022-11-02T05:36:41.905Z,5.77
2022-11-02T05:39:08.583Z,5.62
2022-11-02T05:41:35.118Z,5.32
2022-11-02T05:44:02.049Z,5.20
2022-11-02T05:46:30.445Z,5.57
2022-11-02T05:48:56.977Z,5.61
2022-11-02T05:51:23.470Z,5.68
2022-11-02T05:53:50.136Z,5.54
2022-11-02T05:56:22.086Z,5.44
2022-11-02T06:01:23.854Z,5.30
2022-11-02T06:03:53.470Z,5.35
2022-11-02T06:06:20.798Z,5.26
2022-11-02T06:08:47.351Z,5.35
2022-11-02T06:11:14.114Z,5.34
2022-11-02T06:13:41.664Z,5.33
2022-11-02T06:16:10.583Z,5.44
2022-11-02T06:18:38.356Z,5.61
2022-11-02T06:21:05.485Z,5.49
2022-11-02T06:23:32.151Z,5.53
2022-11-02T06:25:59.935Z,5.57
2022-11-02T06:28:27.886Z,5.45
2022-11-02T06:30:55.405Z,5.50
2022-11-02T06:33:22.287Z,5.39
2022-11-02T06:35:53.668Z,5.26
2022-11-02T06:38:21.147Z,5.51
2022-11-02T06:41:03.878Z,5.60
2022-11-02T06:43:31.148Z,5.70
2022-11-02T06:45:58.402Z,5.33
2022-11-02T06:48:33.123Z,5.46
2022-11-02T06:51:02.573Z,5.74
2022-11-02T06:53:29.106Z,5.77
2022-11-02T06:55:56.138Z,5.77
2022-11-02T06:58:24.182Z,5.87
2022-11-02T07:00:56.769Z,5.83
2022-11-02T07:03:23.665Z,5.79
2022-11-02T07:05:52.112Z,5.97
2022-11-02T07:08:19.266Z,6.14
2022-11-02T07:10:45.972Z,6.21
2022-11-02T07:13:12.761Z,6.36
2022-11-02T07:15:39.843Z,6.44
2022-11-02T07:18:08.289Z,6.40
2022-11-02T07:20:35.524Z,6.63
2022-11-02T07:23:03.067Z,6.60
2022-11-02T07:25:31.543Z,6.87
2022-11-02T07:28:01.973Z,6.74
2022-11-02T07:30:29.872Z,6.95
2022-11-02T07:32:57.164Z,7.19
2022-11-02T07:35:24.221Z,7.15
2022-11-02T07:38:04.840Z,7.39
2022-11-02T07:40:33.194Z,7.31
2022-11-02T07:43:00.287Z,7.51
2022-11-02T07:45:36.170Z,7.63
2022-11-02T07:48:02.679Z,7.63
2022-11-02T07:50:29.203Z,7.63
2022-11-02T07:52:57.932Z,7.87
2022-11-02T07:55:28.962Z,7.52
2022-11-02T07:58:01.115Z,7.69
2022-11-02T08:00:30.211Z,7.43
2022-11-02T08:02:58.931Z,7.58
2022-11-02T08:05:26.858Z,7.61
2022-11-02T08:07:58.284Z,7.73
2022-11-02T08:10:25.918Z,7.90
2022-11-02T08:12:52.402Z,8.04
2022-11-02T08:15:19.009Z,8.38
2022-11-02T08:17:45.593Z,8.52
2022-11-02T08:20:12.702Z,8.71
2022-11-02T08:22:39.519Z,9.03
2022-11-02T08:25:07.520Z,9.27
2022-11-02T08:27:34.401Z,9.49
2022-11-02T08:30:00.861Z,9.27
2022-11-02T08:32:27.369Z,9.64
2022-11-02T08:34:53.810Z,9.48
2022-11-02T08:37:20.285Z,9.54
2022-11-02T08:39:46.694Z,9.62
2022-11-02T08:42:13.145Z,9.81
2022-11-02T08:44:42.486Z,9.87
2022-11-02T08:47:09.735Z,9.98
2022-11-02T08:49:36.530Z,10.39
2022-11-02T08:52:02.957Z,10.60
2022-11-02T08:54:29.646Z,10.58
2022-11-02T08:56:56.017Z,10.72
2022-11-02T08:59:31.887Z,10.48
2022-11-02T09:01:58.595Z,10.69
2022-11-02T09:04:25.217Z,10.81
2022-11-02T09:06:51.732Z,10.59
2022-11-02T09:09:18.329Z,10.95
2022-11-02T09:11:44.711Z,11.03
2022-11-02T09:14:11.297Z,10.93
2022-11-02T09:16:41.379Z,11.02
2022-11-02T09:19:08.569Z,11.34
2022-11-02T09:21:35.074Z,11.62
2022-11-02T09:24:01.457Z,11.85
2022-11-02T09:26:28.673Z,11.73
2022-11-02T09:28:55.087Z,11.90
2022-11-02T09:31:21.525Z,12.14
2022-11-02T09:33:47.993Z,12.27
2022-11-02T09:36:14.392Z,12.34
2022-11-02T09:38:40.945Z,12.52
2022-11-02T09:41:27.687Z,12.72
2022-11-02T09:44:56.130Z,12.59
2022-11-02T09:50:34.628Z,12.93
2022-11-02T09:53:07.703Z,12.93
2022-11-02T09:55:37.762Z,13.10
2022-11-02T09:58:11.995Z,12.99
2022-11-02T10:00:40.984Z,13.23
2022-11-02T10:03:29.183Z,13.40
2022-11-02T10:06:03.245Z,13.21
2022-11-02T10:08:48.197Z,13.14
2022-11-02T10:11:44.698Z,13.60
2022-11-02T10:14:23.999Z,13.27
2022-11-02T10:17:00.638Z,13.35
2022-11-02T10:19:30.289Z,13.23
2022-11-02T10:21:58.625Z,12.99
2022-11-02T10:24:35.601Z,12.96
2022-11-02T10:27:11.553Z,12.80
2022-11-02T10:29:46.713Z,12.42
2022-11-02T10:32:14.859Z,12.09
2022-11-02T10:34:43.725Z,11.94
2022-11-02T10:37:32.614Z,12.39
2022-11-02T10:40:32.980Z,12.37
2022-11-02T10:43:16.880Z,12.20
2022-11-02T10:46:02.279Z,12.12
2022-11-02T10:48:44.589Z,12.44
2022-11-02T10:51:13.827Z,12.18
2022-11-02T10:53:43.468Z,12.09
2022-11-02T10:56:14.822Z,12.55
2022-11-02T10:59:00.113Z,12.80
2022-11-02T11:01:29.885Z,12.97
2022-11-02T11:04:02.178Z,13.05
2022-11-02T11:06:30.668Z,13.01
2022-11-02T11:09:04.562Z,13.79
2022-11-02T11:11:37.381Z,13.21
2022-11-02T11:32:48.160Z,12.85
2022-11-02T11:35:19.080Z,13.16
2022-11-02T11:37:53.705Z,13.06
2022-11-02T11:40:22.608Z,13.07
2022-11-02T11:42:52.077Z,13.47
2022-11-02T11:45:23.625Z,13.71
2022-11-02T11:48:19.338Z,13.88
2022-11-02T11:50:50.776Z,13.89
2022-11-02T11:53:26.486Z,13.87
2022-11-02T11:55:55.395Z,13.91
2022-11-02T11:58:23.172Z,13.95
2022-11-02T12:01:09.210Z,13.85
2022-11-02T12:03:55.867Z,14.06
2022-11-02T12:06:54.695Z,13.75
2022-11-02T12:09:45.451Z,13.89
2022-11-02T12:12:46.471Z,13.99
2022-11-02T12:15:30.977Z,13.76
2022-11-02T12:18:06.856Z,13.81
2022-11-02T12:20:53.328Z,13.58
2022-11-02T12:23:41.086Z,13.60
2022-11-02T12:26:26.258Z,13.99
2022-11-02T12:29:25.139Z,13.73
2022-11-02T12:32:09.847Z,13.72
2022-11-02T12:35:28.368Z,13.55
2022-11-02T12:38:08.436Z,13.75
2022-11-02T12:41:02.944Z,13.92
2022-11-02T12:43:38.513Z,14.07
2022-11-02T12:46:10.800Z,13.63
2022-11-02T12:48:51.184Z,13.71
2022-11-02T12:51:34.394Z,14.06
2022-11-02T12:54:17.520Z,13.91
2022-11-02T12:56:48.760Z,14.13
2022-11-02T12:59:34.660Z,14.15
2022-11-02T13:02:11.803Z,14.12
2022-11-02T13:04:53.075Z,13.90
2022-11-02T13:07:29.354Z,13.81
2022-11-02T13:10:18.682Z,13.90
2022-11-02T13:12:48.708Z,14.38
2022-11-02T13:15:19.845Z,14.32
2022-11-02T13:18:05.374Z,14.28
2022-11-02T13:20:38.252Z,14.05
2022-11-02T13:23:14.366Z,14.04
2022-11-02T13:25:46.763Z,14.22
2022-11-02T13:28:34.895Z,14.64
2022-11-02T13:31:10.068Z,14.30
2022-11-02T13:33:49.310Z,14.11
2022-11-02T13:36:16.233Z,14.20
2022-11-02T13:38:57.204Z,14.25
2022-11-02T13:41:53.232Z,14.22
2022-11-02T13:44:37.910Z,14.15
2022-11-02T13:47:24.069Z,14.30
2022-11-02T13:49:54.246Z,14.04
2022-11-02T13:52:44.881Z,13.75
2022-11-02T13:55:20.195Z,13.62
2022-11-02T13:57:58.856Z,13.64
2022-11-02T14:00:39.620Z,13.40
2022-11-02T14:03:27.486Z,13.19
2022-11-02T14:05:53.996Z,13.08
2022-11-02T14:08:23.929Z,12.87
2022-11-02T14:11:22.733Z,13.07
2022-11-02T14:13:55.254Z,13.14
2022-11-02T14:16:40.761Z,12.93
2022-11-02T14:19:19.529Z,12.95
2022-11-02T14:21:52.751Z,13.06
2022-11-02T14:24:34.379Z,13.09
2022-11-02T14:27:24.680Z,12.82
2022-11-02T14:29:53.921Z,12.82
2022-11-02T14:32:20.367Z,12.74
2022-11-02T14:34:51.089Z,12.75
2022-11-02T14:37:30.117Z,12.66
2022-11-02T14:40:18.590Z,12.52
2022-11-02T14:42:51.132Z,12.39
2022-11-02T14:45:40.558Z,12.28
2022-11-02T14:48:13.325Z,12.08
2022-11-02T14:50:40.267Z,12.16
2022-11-02T14:53:15.068Z,12.14
2022-11-02T14:55:52.395Z,12.02
2022-11-02T14:58:21.638Z,11.93
2022-11-02T15:00:48.265Z,12.05
2022-11-02T15:03:23.710Z,12.02
2022-11-02T15:06:03.273Z,11.88
2022-11-02T15:09:04.213Z,11.93
2022-11-02T15:11:51.514Z,11.72
2022-11-02T15:14:36.615Z,11.66
2022-11-02T15:17:24.601Z,11.54
2022-11-02T15:20:13.911Z,11.59
2022-11-02T15:22:48.735Z,11.52
2022-11-02T15:25:38.529Z,11.53
2022-11-02T15:28:23.529Z,11.50
2022-11-02T15:30:52.621Z,11.23
2022-11-02T15:33:37.937Z,11.05
2022-11-02T15:36:08.072Z,10.89
2022-11-02T15:38:39.729Z,10.56
2022-11-02T15:41:12.514Z,10.62
2022-11-02T15:44:03.594Z,10.45
2022-11-02T15:47:06.701Z,10.20
2022-11-02T15:49:39.012Z,10.26
2022-11-02T15:52:13.879Z,10.05
2022-11-02T15:55:11.393Z,9.98
2022-11-02T15:57:55.400Z,9.80
2022-11-02T16:00:30.174Z,9.72
2022-11-02T16:03:08.806Z,9.72
2022-11-02T16:05:38.040Z,9.65
2022-11-02T16:08:10.972Z,9.50
2022-11-02T16:10:37.948Z,9.38
2022-11-02T16:13:07.860Z,9.27
2022-11-02T16:15:34.581Z,9.34
2022-11-02T16:18:01.489Z,9.27
2022-11-02T16:20:30.949Z,9.12
2022-11-02T16:23:01.498Z,9.06
2022-11-02T16:25:38.456Z,9.03
2022-11-02T16:28:21.609Z,9.00
2022-11-02T16:31:25.201Z,8.92
2022-11-02T16:33:54.131Z,8.83
2022-11-02T16:36:23.183Z,8.84
2022-11-02T16:39:03.448Z,8.75
2022-11-02T16:41:32.308Z,8.70
2022-11-02T16:44:19.227Z,8.54
2022-11-02T16:46:55.477Z,8.43
2022-11-02T16:49:23.728Z,8.43
2022-11-02T16:51:53.327Z,8.32
2022-11-02T16:54:33.436Z,8.38
2022-11-02T16:57:11.222Z,8.34
2022-11-02T16:59:56.300Z,8.30
2022-11-02T17:02:38.060Z,8.17
2022-11-02T17:05:07.364Z,8.04
2022-11-02T17:07:43.639Z,8.11
2022-11-02T17:10:21.109Z,8.07
2022-11-02T17:12:48.782Z,7.95
2022-11-02T17:15:24.361Z,8.00
2022-11-02T17:18:16.514Z,7.95
2022-11-02T17:20:43.165Z,7.92
2022-11-02T17:23:29.071Z,7.83
2022-11-02T17:26:27.471Z,7.81
2022-11-02T17:28:55.296Z,7.76
2022-11-02T17:31:25.091Z,7.66
2022-11-02T17:33:53.528Z,7.69
2022-11-02T17:36:20.446Z,7.62
2022-11-02T17:38:46.999Z,7.52
2022-11-02T17:41:33.956Z,7.52
2022-11-02T17:44:00.625Z,7.46
2022-11-02T17:46:27.365Z,7.40
2022-11-02T17:48:53.933Z,7.34
2022-11-02T17:51:21.970Z,7.32
2022-11-02T17:53:51.499Z,7.19
2022-11-02T17:56:18.047Z,7.24
2022-11-02T17:58:44.514Z,7.15
2022-11-02T18:01:13.062Z,7.15
2022-11-02T18:03:40.152Z,6.81
2022-11-02T18:06:06.950Z,7.10
2022-11-02T18:08:53.450Z,7.07
2022-11-02T18:11:25.026Z,7.04
2022-11-02T18:13:52.741Z,6.82
2022-11-02T18:16:19.286Z,7.01
2022-11-02T18:18:45.860Z,6.97
2022-11-02T18:21:12.709Z,6.95
2022-11-02T18:23:40.664Z,6.88
2022-11-02T18:26:10.321Z,6.82
2022-11-02T18:28:36.906Z,6.82
2022-11-02T18:31:06.377Z,6.80
2022-11-02T18:33:32.902Z,6.79
2022-11-02T18:36:03.559Z,6.79
2022-11-02T18:38:30.112Z,6.57
2022-11-02T18:40:56.531Z,6.59
2022-11-02T18:43:23.068Z,6.49
2022-11-02T18:45:49.562Z,6.53
2022-11-02T18:48:16.135Z,6.52
2022-11-02T18:50:42.561Z,6.49
2022-11-02T18:53:10.104Z,6.44
2022-11-02T18:55:39.526Z,6.44
2022-11-02T18:58:06.383Z,6.40
2022-11-02T19:00:33.151Z,6.42
2022-11-02T19:02:59.597Z,6.41
2022-11-02T19:05:44.847Z,6.36
2022-11-02T19:08:30.083Z,6.32
2022-11-02T19:10:56.738Z,6.29
2022-11-02T19:13:23.299Z,6.27
2022-11-02T19:15:50.156Z,6.14
2022-11-02T19:18:16.554Z,6.09
2022-11-02T19:20:43.066Z,5.92
2022-11-02T19:23:10.074Z,6.04
2022-11-02T19:25:36.956Z,6.08
2022-11-02T19:28:04.625Z,5.99
2022-11-02T19:30:31.480Z,5.79
2022-11-02T19:32:58.096Z,5.97
2022-11-02T19:35:24.529Z,5.92
2022-11-02T19:37:51.055Z,5.96
2022-11-02T19:40:17.479Z,5.92
2022-11-02T19:42:44.040Z,5.60
2022-11-02T19:45:16.492Z,5.89
2022-11-02T19:47:43.815Z,5.83
2022-11-02T19:50:10.799Z,5.83
2022-11-02T19:52:37.401Z,5.81
2022-11-02T19:55:04.202Z,5.29
2022-11-02T19:57:33.411Z,5.79
2022-11-02T20:00:00.106Z,5.76
2022-11-02T20:02:27.553Z,5.64
2022-11-02T20:04:54.134Z,5.68
2022-11-02T20:07:20.546Z,5.65
2022-11-02T20:09:47.074Z,5.57
2022-11-02T20:12:13.483Z,5.76
2022-11-02T20:14:40.064Z,5.70
2022-11-02T20:17:35.192Z,5.44
2022-11-02T20:19:53.085Z,5.56
2022-11-02T20:22:19.503Z,5.57
2022-11-02T20:24:46.034Z,5.52
2022-11-02T20:27:13.976Z,5.51
2022-11-02T20:29:40.671Z,5.50
2022-11-02T20:32:10.290Z,5.42
2022-11-02T20:34:36.951Z,5.40
2022-11-02T20:37:05.047Z,5.31
2022-11-02T20:39:31.591Z,5.41
2022-11-02T20:41:58.017Z,5.42
2022-11-02T20:44:25.034Z,5.30
2022-11-02T20:46:53.352Z,5.33
2022-11-02T20:49:21.845Z,5.35
2022-11-02T20:52:03.095Z,5.15
2022-11-02T20:54:30.033Z,5.32
2022-11-02T20:56:57.011Z,5.13
2022-11-02T20:59:23.554Z,5.23
2022-11-02T21:01:50.070Z,5.23
2022-11-02T21:04:20.714Z,5.20
2022-11-02T21:06:49.790Z,5.17
2022-11-02T21:09:17.157Z,5.17
2022-11-02T21:12:02.106Z,5.20
2022-11-02T21:14:28.652Z,5.18
2022-11-02T21:16:55.488Z,5.16
2022-11-02T21:19:22.069Z,5.03
2022-11-02T21:21:48.493Z,5.13
2022-11-02T21:24:15.030Z,5.11
2022-11-02T21:26:41.457Z,5.09
2022-11-02T21:29:09.059Z,5.07
2022-11-02T21:31:35.691Z,5.07
2022-11-02T21:34:02.383Z,5.02
2022-11-02T21:36:28.891Z,4.98
2022-11-02T21:38:55.912Z,4.97
2022-11-02T21:41:26.591Z,4.90
2022-11-02T21:43:55.431Z,4.89
2022-11-02T21:46:24.096Z,4.84
2022-11-02T21:48:50.700Z,4.77
2022-11-02T21:51:20.429Z,4.81
2022-11-02T21:53:48.170Z,4.81
2022-11-02T21:56:35.827Z,4.66
2022-11-02T21:59:02.605Z,4.84
2022-11-02T22:01:50.127Z,4.77
2022-11-02T22:04:25.542Z,4.67
2022-11-02T22:06:52.607Z,4.65
2022-11-02T22:09:19.256Z,4.66
2022-11-02T22:11:45.919Z,4.62
2022-11-02T22:14:13.457Z,4.75
2022-11-02T22:16:43.554Z,4.78
2022-11-02T22:19:12.664Z,4.75
2022-11-02T22:21:44.591Z,4.75
2022-11-02T22:24:11.660Z,4.57
2022-11-02T22:26:39.229Z,4.54
2022-11-02T22:29:06.581Z,4.72
2022-11-02T22:31:36.089Z,4.61
2022-11-02T22:34:04.367Z,4.56
2022-11-02T22:36:33.283Z,4.48
2022-11-02T22:39:01.402Z,4.52
2022-11-02T22:41:36.383Z,4.38
2022-11-02T22:44:06.236Z,4.20
2022-11-02T22:46:35.162Z,4.35
2022-11-02T22:49:05.152Z,4.22
2022-11-02T22:51:34.595Z,4.29
2022-11-02T22:54:02.964Z,4.31
2022-11-02T22:56:29.613Z,4.29
2022-11-02T22:58:56.768Z,4.18
2022-11-02T23:17:44.078Z,3.71
2022-11-02T23:20:10.683Z,3.73
2022-11-02T23:22:37.186Z,3.94
2022-11-02T23:25:18.259Z,4.02
2022-11-02T23:28:06.055Z,4.04
2022-11-02T23:30:55.948Z,4.07
2022-11-02T23:33:24.798Z,4.15
2022-11-02T23:36:09.808Z,4.17
2022-11-02T23:38:55.486Z,4.16
2022-11-02T23:41:22.093Z,4.28
2022-11-02T23:43:48.872Z,4.28
2022-11-02T23:46:15.599Z,4.10
2022-11-02T23:48:42.329Z,4.28
2022-11-02T23:51:30.595Z,4.13
2022-11-02T23:54:15.593Z,4.20
2022-11-02T23:56:45.879Z,4.13
2022-11-02T23:59:14.076Z,4.28
